createdAt,value
2023-02-03T00:00:01.945Z,36.90
2023-02-03T00:02:39.312Z,36.90
2023-02-03T00:05:08.105Z,37.00
2023-02-03T00:07:38.647Z,36.90
2023-02-03T00:10:08.104Z,37.00
2023-02-03T00:12:36.068Z,37.00
2023-02-03T00:15:04.824Z,36.90
2023-02-03T00:17:32.731Z,37.00
2023-02-03T00:20:00.639Z,37.00
2023-02-03T00:22:28.365Z,37.00
2023-02-03T00:24:56.290Z,36.90
2023-02-03T00:27:24.281Z,36.90
2023-02-03T00:29:53.284Z,36.90
2023-02-03T00:32:21.332Z,36.90
2023-02-03T00:34:49.079Z,36.90
2023-02-03T00:37:17.009Z,37.00
2023-02-03T00:39:45.057Z,37.00
2023-02-03T00:42:12.782Z,37.00
2023-02-03T00:44:40.581Z,37.00
2023-02-03T00:47:08.743Z,37.00
2023-02-03T00:49:36.786Z,37.00
2023-02-03T00:52:05.039Z,37.00
2023-02-03T00:54:33.822Z,37.00
2023-02-03T00:57:01.772Z,37.00
2023-02-03T00:59:29.655Z,37.00
2023-02-03T01:01:57.537Z,37.00
2023-02-03T01:04:26.010Z,37.00
2023-02-03T01:06:57.653Z,37.00
2023-02-03T01:09:26.301Z,37.00
2023-02-03T01:11:55.412Z,37.10
2023-02-03T01:14:23.319Z,37.00
2023-02-03T01:16:51.360Z,37.00
2023-02-03T01:19:19.255Z,37.10
2023-02-03T01:21:47.267Z,37.10
2023-02-03T01:24:15.308Z,37.10
2023-02-03T01:26:43.724Z,37.10
2023-02-03T01:29:11.896Z,37.10
2023-02-03T01:31:42.493Z,37.10
2023-02-03T01:34:16.552Z,37.10
2023-02-03T01:36:46.956Z,37.10
2023-02-03T01:39:15.134Z,37.10
2023-02-03T01:41:43.331Z,37.00
2023-02-03T01:44:32.439Z,37.10
2023-02-03T01:47:00.501Z,37.10
2023-02-03T01:49:34.033Z,37.10
2023-02-03T01:52:02.769Z,37.10
2023-02-03T01:54:34.026Z,37.20
2023-02-03T01:57:05.791Z,37.10
2023-02-03T01:59:36.068Z,37.20
2023-02-03T02:02:05.879Z,37.10
2023-02-03T02:04:57.498Z,37.10
2023-02-03T02:07:26.063Z,37.10
2023-02-03T02:09:55.096Z,37.10
2023-02-03T02:12:23.076Z,37.10
2023-02-03T02:14:51.132Z,37.10
2023-02-03T02:17:52.287Z,37.10
2023-02-03T02:21:02.544Z,37.10
2023-02-03T02:24:09.355Z,37.10
2023-02-03T02:26:51.834Z,37.10
2023-02-03T02:29:38.478Z,37.10
2023-02-03T02:32:18.166Z,37.10
2023-02-03T02:34:57.980Z,37.20
2023-02-03T02:37:59.000Z,37.10
2023-02-03T02:40:38.089Z,37.10
2023-02-03T02:43:13.951Z,37.20
2023-02-03T02:45:50.398Z,37.10
2023-02-03T02:48:26.799Z,37.10
2023-02-03T02:50:57.924Z,37.10
2023-02-03T02:53:32.522Z,37.10
2023-02-03T02:56:03.938Z,37.10
2023-02-03T02:58:34.905Z,37.10
2023-02-03T03:01:04.070Z,37.10
2023-02-03T03:03:31.974Z,37.00
2023-02-03T03:06:08.237Z,36.80
2023-02-03T03:08:45.138Z,36.70
2023-02-03T03:11:13.436Z,36.60
2023-02-03T03:13:52.457Z,36.50
2023-02-03T03:16:25.008Z,36.50
2023-02-03T03:19:00.780Z,36.40
2023-02-03T03:21:35.039Z,36.40
2023-02-03T03:24:08.395Z,36.30
2023-02-03T03:26:45.621Z,36.20
2023-02-03T03:29:24.997Z,36.20
2023-02-03T03:31:53.591Z,36.20
2023-02-03T03:34:21.728Z,36.10
2023-02-03T03:36:58.839Z,36.00
2023-02-03T03:39:35.294Z,36.00
2023-02-03T03:42:14.110Z,36.00
2023-02-03T03:44:57.805Z,36.00
2023-02-03T03:47:40.076Z,35.90
2023-02-03T03:50:11.720Z,35.80
2023-02-03T03:52:41.038Z,35.80
2023-02-03T03:55:11.819Z,35.80
2023-02-03T03:57:57.273Z,35.70
2023-02-03T04:00:28.193Z,35.70
2023-02-03T04:02:58.593Z,35.60
2023-02-03T04:05:27.137Z,35.60
2023-02-03T04:07:55.660Z,35.40
2023-02-03T04:10:32.556Z,35.40
2023-02-03T04:13:01.917Z,35.40
2023-02-03T04:15:31.007Z,35.30
2023-02-03T04:18:01.532Z,35.90
2023-02-03T04:20:30.860Z,36.30
2023-02-03T04:22:59.640Z,36.40
2023-02-03T04:25:27.838Z,36.60
2023-02-03T04:27:56.832Z,36.70
2023-02-03T04:30:25.580Z,36.70
2023-02-03T04:32:54.561Z,37.00
2023-02-03T04:35:22.827Z,36.90
2023-02-03T04:37:51.311Z,37.10
2023-02-03T04:40:19.756Z,37.10
2023-02-03T04:42:47.995Z,37.10
2023-02-03T04:45:16.624Z,37.30
2023-02-03T04:47:45.259Z,37.30
2023-02-03T04:50:13.206Z,37.40
2023-02-03T04:52:41.092Z,37.40
2023-02-03T04:55:09.825Z,37.40
2023-02-03T04:57:38.418Z,37.60
2023-02-03T05:00:07.432Z,37.60
2023-02-03T05:02:35.983Z,37.40
2023-02-03T05:05:04.514Z,37.40
2023-02-03T05:07:32.906Z,37.00
2023-02-03T05:10:01.407Z,36.90
2023-02-03T05:12:29.801Z,35.40
2023-02-03T05:14:58.385Z,34.70
2023-02-03T05:17:26.788Z,30.80
2023-02-03T05:19:55.477Z,30.80
2023-02-03T05:22:24.138Z,30.70
2023-02-03T05:24:52.772Z,30.60
2023-02-03T05:27:21.141Z,30.60
2023-02-03T05:29:49.439Z,30.70
2023-02-03T05:32:18.064Z,31.50
2023-02-03T05:34:46.629Z,31.70
2023-02-03T05:37:14.716Z,32.20
2023-02-03T05:39:43.265Z,32.30
2023-02-03T05:42:11.620Z,32.30
2023-02-03T05:44:40.087Z,32.80
2023-02-03T05:47:09.053Z,33.20
2023-02-03T05:49:37.451Z,33.00
2023-02-03T05:52:05.650Z,32.80
2023-02-03T05:54:34.312Z,32.80
2023-02-03T05:57:02.806Z,32.70
2023-02-03T05:59:31.410Z,32.90
2023-02-03T06:01:59.647Z,32.90
2023-02-03T06:04:28.205Z,33.00
2023-02-03T06:06:56.563Z,33.10
2023-02-03T06:09:25.118Z,33.10
2023-02-03T06:11:53.540Z,33.20
2023-02-03T06:14:21.940Z,33.30
2023-02-03T06:16:50.533Z,33.30
2023-02-03T06:19:19.133Z,33.50
2023-02-03T06:21:47.517Z,33.40
2023-02-03T06:24:16.191Z,33.50
2023-02-03T06:26:44.696Z,33.60
2023-02-03T06:29:12.820Z,33.50
2023-02-03T06:31:41.311Z,33.60
2023-02-03T06:34:10.091Z,33.60
2023-02-03T06:36:38.764Z,33.70
2023-02-03T06:39:07.250Z,33.70
2023-02-03T06:41:35.578Z,33.70
2023-02-03T06:44:04.334Z,33.80
2023-02-03T06:46:34.355Z,33.80
2023-02-03T06:49:02.848Z,33.80
2023-02-03T06:51:31.335Z,33.90
2023-02-03T06:54:00.153Z,33.90
2023-02-03T06:56:28.921Z,34.00
2023-02-03T06:58:59.091Z,33.90
2023-02-03T07:01:27.861Z,33.90
2023-02-03T07:03:59.205Z,34.00
2023-02-03T07:06:30.329Z,34.30
2023-02-03T07:09:01.852Z,34.40
2023-02-03T07:11:30.900Z,34.30
2023-02-03T07:13:59.525Z,34.50
2023-02-03T07:16:28.204Z,34.40
2023-02-03T07:18:56.835Z,34.40
2023-02-03T07:21:25.133Z,34.50
2023-02-03T07:23:53.783Z,34.50
2023-02-03T07:26:23.525Z,34.60
2023-02-03T07:28:52.920Z,34.60
2023-02-03T07:31:21.646Z,34.60
2023-02-03T07:33:50.443Z,34.60
2023-02-03T07:36:18.731Z,34.60
2023-02-03T07:38:47.213Z,34.60
2023-02-03T07:41:17.686Z,34.60
2023-02-03T07:43:46.812Z,34.70
2023-02-03T07:46:15.156Z,34.60
2023-02-03T07:48:43.246Z,34.80
2023-02-03T07:51:11.317Z,35.30
2023-02-03T07:53:39.850Z,35.20
2023-02-03T07:56:08.250Z,35.30
2023-02-03T08:07:38.280Z,35.30
2023-02-03T08:10:07.636Z,35.20
2023-02-03T08:12:36.194Z,35.10
2023-02-03T08:15:05.513Z,35.00
2023-02-03T08:17:34.138Z,35.10
2023-02-03T08:20:03.178Z,35.30
2023-02-03T08:22:31.492Z,35.10
2023-02-03T08:25:00.076Z,35.50
2023-02-03T08:27:28.899Z,35.60
2023-02-03T08:29:57.637Z,35.40
2023-02-03T08:32:26.225Z,35.60
2023-02-03T09:06:28.112Z,35.80
2023-02-03T09:08:56.758Z,35.80
2023-02-03T09:11:25.444Z,36.00
2023-02-03T09:13:53.842Z,36.10
2023-02-03T09:16:22.344Z,36.10
2023-02-03T09:18:51.343Z,36.20
2023-02-03T09:21:31.981Z,36.20
2023-02-03T09:24:04.284Z,36.30
2023-02-03T09:26:32.686Z,36.60
2023-02-03T09:29:00.848Z,36.50
2023-02-03T09:31:28.854Z,36.60
2023-02-03T09:33:57.160Z,36.20
2023-02-03T09:36:25.724Z,36.50
2023-02-03T09:38:54.200Z,36.30
2023-02-03T09:41:37.249Z,36.30
2023-02-03T09:44:26.688Z,36.30
2023-02-03T09:46:59.486Z,36.50
2023-02-03T09:49:44.362Z,36.50
2023-02-03T09:52:19.824Z,36.60
2023-02-03T09:55:01.929Z,36.70
2023-02-03T09:57:40.956Z,36.80
2023-02-03T10:00:36.791Z,36.80
2023-02-03T10:03:28.145Z,36.80
2023-02-03T10:06:14.544Z,37.00
2023-02-03T10:08:55.987Z,36.90
2023-02-03T10:11:39.301Z,37.00
2023-02-03T10:14:22.499Z,37.30
2023-02-03T10:17:19.464Z,37.40
2023-02-03T10:20:03.090Z,36.80
2023-02-03T10:22:35.305Z,36.60
2023-02-03T10:25:11.486Z,36.60
2023-02-03T10:27:40.389Z,36.70
2023-02-03T10:30:49.983Z,36.60
2023-02-03T10:33:19.588Z,36.70
2023-02-03T10:36:00.313Z,36.50
2023-02-03T10:38:57.282Z,36.60
2023-02-03T10:41:26.283Z,37.00
2023-02-03T10:43:57.587Z,37.00
2023-02-03T10:46:31.066Z,37.20
2023-02-03T10:48:59.729Z,37.30
2023-02-03T10:51:35.309Z,37.00
2023-02-03T10:54:03.789Z,37.20
2023-02-03T10:56:37.701Z,37.30
2023-02-03T10:59:07.799Z,37.00
2023-02-03T11:01:48.304Z,37.10
2023-02-03T11:04:29.055Z,36.90
2023-02-03T11:07:09.195Z,37.00
2023-02-03T11:09:40.119Z,37.10
2023-02-03T11:12:14.493Z,37.20
2023-02-03T11:14:45.468Z,37.40
2023-02-03T11:17:29.785Z,37.40
2023-02-03T11:20:13.177Z,37.50
2023-02-03T11:22:44.115Z,37.40
2023-02-03T11:25:28.107Z,37.10
2023-02-03T11:27:56.466Z,37.60
2023-02-03T11:30:30.515Z,37.40
2023-02-03T11:33:02.644Z,37.60
2023-02-03T11:35:32.152Z,37.90
2023-02-03T11:38:02.373Z,37.90
2023-02-03T11:40:32.904Z,37.70
2023-02-03T11:43:23.039Z,38.00
2023-02-03T11:45:53.547Z,37.90
2023-02-03T11:48:31.177Z,37.90
2023-02-03T11:51:24.435Z,38.00
2023-02-03T11:54:39.054Z,38.00
2023-02-03T11:57:30.802Z,38.10
2023-02-03T12:00:13.515Z,38.20
2023-02-03T12:02:56.632Z,38.10
2023-02-03T12:05:37.180Z,38.00
2023-02-03T12:08:29.905Z,38.20
2023-02-03T12:11:04.404Z,38.10
2023-02-03T12:13:36.241Z,38.40
2023-02-03T12:16:07.897Z,38.20
2023-02-03T12:18:57.271Z,38.40
2023-02-03T12:21:36.799Z,38.40
2023-02-03T12:24:10.763Z,38.60
2023-02-03T12:27:01.356Z,38.60
2023-02-03T12:29:43.655Z,38.70
2023-02-03T12:32:20.305Z,38.60
2023-02-03T12:35:02.084Z,38.50
2023-02-03T12:38:04.398Z,38.60
2023-02-03T12:40:53.705Z,38.50
2023-02-03T12:43:37.893Z,38.40
2023-02-03T12:46:29.416Z,38.40
2023-02-03T12:49:04.695Z,38.20
2023-02-03T12:51:40.306Z,38.30
2023-02-03T12:54:31.759Z,38.40
2023-02-03T12:57:12.120Z,38.40
2023-02-03T12:59:42.531Z,38.30
2023-02-03T13:02:29.179Z,38.30
2023-02-03T13:05:08.811Z,38.40
2023-02-03T13:07:47.793Z,38.40
2023-02-03T13:10:49.070Z,38.50
2023-02-03T13:13:26.577Z,38.50
2023-02-03T13:15:57.678Z,38.40
2023-02-03T13:18:44.356Z,38.40
2023-02-03T13:21:13.228Z,38.50
2023-02-03T13:23:45.032Z,38.60
2023-02-03T13:26:19.698Z,38.60
2023-02-03T13:29:12.948Z,38.50
2023-02-03T13:31:55.179Z,38.80
2023-02-03T13:34:39.366Z,38.70
2023-02-03T13:37:55.659Z,38.70
2023-02-03T13:40:54.351Z,38.70
2023-02-03T13:43:38.695Z,38.60
2023-02-03T13:46:19.564Z,38.90
2023-02-03T13:48:48.427Z,38.80
2023-02-03T13:51:30.195Z,38.80
2023-02-03T13:54:14.977Z,38.90
2023-02-03T13:56:52.960Z,38.90
2023-02-03T13:59:39.212Z,38.70
2023-02-03T14:02:40.961Z,38.70
2023-02-03T14:05:39.113Z,38.80
2023-02-03T14:08:28.287Z,38.70
2023-02-03T14:11:33.865Z,38.80
2023-02-03T14:14:08.020Z,38.90
2023-02-03T14:16:41.486Z,38.80
2023-02-03T14:19:13.603Z,38.90
2023-02-03T14:21:50.108Z,38.90
2023-02-03T14:24:20.090Z,38.80
2023-02-03T14:26:54.410Z,38.90
2023-02-03T14:29:35.424Z,38.90
2023-02-03T14:32:06.680Z,39.00
2023-02-03T14:34:55.397Z,38.90
2023-02-03T14:37:26.966Z,38.70
2023-02-03T14:40:34.473Z,38.80
2023-02-03T14:43:21.874Z,38.80
2023-02-03T14:46:23.371Z,39.10
2023-02-03T14:49:07.732Z,38.90
2023-02-03T14:52:03.859Z,39.00
2023-02-03T14:54:51.023Z,39.10
2023-02-03T14:57:33.073Z,39.10
2023-02-03T15:00:06.711Z,39.10
2023-02-03T15:02:36.558Z,39.00
2023-02-03T15:05:14.114Z,38.90
2023-02-03T15:07:46.384Z,38.40
2023-02-03T15:10:22.192Z,39.20
2023-02-03T15:12:59.199Z,39.00
2023-02-03T15:15:30.790Z,39.20
2023-02-03T15:18:19.546Z,39.20
2023-02-03T15:20:53.355Z,39.40
2023-02-03T15:23:27.211Z,39.40
2023-02-03T15:26:02.311Z,39.50
2023-02-03T15:28:31.386Z,39.40
2023-02-03T15:31:10.070Z,39.30
2023-02-03T15:33:39.925Z,39.40
2023-02-03T15:36:34.332Z,39.40
2023-02-03T15:39:38.786Z,39.40
2023-02-03T15:42:14.866Z,39.40
2023-02-03T15:44:52.950Z,39.30
2023-02-03T15:47:31.256Z,39.30
2023-02-03T15:50:28.968Z,39.40
2023-02-03T15:53:01.869Z,39.50
2023-02-03T15:56:04.185Z,39.50
2023-02-03T15:58:45.145Z,39.50
2023-02-03T16:01:18.058Z,39.50
2023-02-03T16:03:53.246Z,39.60
2023-02-03T16:06:36.265Z,39.50
2023-02-03T16:09:07.510Z,39.60
2023-02-03T16:11:40.369Z,39.60
2023-02-03T16:14:11.968Z,39.50
2023-02-03T16:17:04.363Z,38.80
2023-02-03T16:19:38.647Z,38.60
2023-02-03T16:22:28.842Z,38.40
2023-02-03T16:24:58.747Z,38.20
2023-02-03T16:27:27.828Z,38.10
2023-02-03T16:30:26.474Z,38.00
2023-02-03T16:33:29.369Z,38.00
2023-02-03T16:36:19.597Z,37.90
2023-02-03T16:39:07.993Z,37.80
2023-02-03T16:41:56.755Z,37.70
2023-02-03T16:44:43.893Z,37.60
2023-02-03T16:47:48.854Z,37.50
2023-02-03T16:50:44.529Z,37.50
2023-02-03T16:53:21.851Z,37.50
2023-02-03T16:55:53.906Z,37.50
2023-02-03T16:58:22.946Z,37.20
2023-02-03T17:00:53.786Z,37.20
2023-02-03T17:03:24.601Z,37.20
2023-02-03T17:05:53.373Z,37.20
2023-02-03T17:08:26.176Z,37.20
2023-02-03T17:10:54.671Z,37.20
2023-02-03T17:13:24.844Z,37.20
2023-02-03T17:15:53.480Z,37.20
2023-02-03T17:18:22.368Z,37.20
2023-02-03T17:20:50.876Z,37.30
2023-02-03T17:23:19.317Z,37.20
2023-02-03T17:25:49.897Z,37.20
2023-02-03T17:28:19.699Z,37.30
2023-02-03T17:30:59.953Z,37.30
2023-02-03T17:33:29.792Z,37.30
2023-02-03T17:36:04.470Z,37.40
2023-02-03T17:55:20.932Z,37.20
2023-02-03T17:57:49.582Z,37.20
2023-02-03T18:00:18.449Z,37.20
2023-02-03T18:02:51.434Z,37.20
2023-02-03T18:05:20.136Z,37.30
2023-02-03T18:10:22.455Z,37.10
2023-02-03T18:12:51.192Z,37.20
2023-02-03T18:15:19.509Z,37.20
2023-02-03T18:17:47.925Z,37.20
2023-02-03T18:20:16.620Z,37.20
2023-02-03T18:22:45.515Z,37.20
2023-02-03T18:25:17.354Z,37.20
2023-02-03T18:27:45.808Z,37.20
2023-02-03T18:30:15.393Z,37.20
2023-02-03T18:32:44.390Z,37.30
2023-02-03T18:35:17.076Z,37.30
2023-02-03T18:37:46.177Z,37.20
2023-02-03T18:40:14.848Z,37.30
2023-02-03T18:42:42.919Z,37.30
2023-02-03T18:45:12.494Z,37.30
2023-02-03T18:47:41.396Z,37.20
2023-02-03T18:50:10.300Z,37.30
2023-02-03T18:52:40.040Z,37.30
2023-02-03T18:55:09.687Z,37.40
2023-02-03T18:57:38.126Z,37.40
2023-02-03T19:00:07.688Z,37.40
2023-02-03T19:02:36.425Z,37.30
2023-02-03T19:05:05.679Z,37.40
2023-02-03T19:07:34.285Z,37.40
2023-02-03T19:10:02.495Z,37.40
2023-02-03T19:12:30.858Z,37.40
2023-02-03T19:14:59.481Z,37.40
2023-02-03T19:17:27.789Z,37.50
2023-02-03T19:19:56.426Z,37.50
2023-02-03T19:22:24.885Z,37.50
2023-02-03T19:24:53.388Z,37.50
2023-02-03T19:27:22.040Z,37.50
2023-02-03T19:29:50.626Z,37.50
2023-02-03T19:32:19.506Z,37.50
2023-02-03T19:34:47.950Z,37.50
2023-02-03T19:37:16.481Z,37.60
2023-02-03T19:39:48.002Z,37.60
2023-02-03T19:42:16.817Z,37.60
2023-02-03T19:44:45.180Z,37.60
2023-02-03T19:47:13.894Z,37.60
2023-02-03T19:49:42.105Z,37.60
2023-02-03T19:52:10.849Z,37.60
2023-02-03T19:54:39.382Z,37.60
2023-02-03T19:57:07.780Z,37.60
2023-02-03T19:59:36.145Z,37.60
2023-02-03T20:02:13.812Z,37.60
2023-02-03T20:04:44.409Z,37.60
2023-02-03T20:07:14.145Z,37.60
2023-02-03T20:09:42.779Z,37.60
2023-02-03T20:12:11.619Z,37.60
2023-02-03T20:14:40.250Z,37.60
2023-02-03T20:17:08.774Z,37.70
2023-02-03T20:19:37.293Z,37.70
2023-02-03T20:22:05.678Z,37.60
2023-02-03T20:24:34.358Z,37.70
2023-02-03T20:27:02.906Z,37.60
2023-02-03T20:29:31.387Z,37.70
2023-02-03T20:32:00.123Z,37.70
2023-02-03T20:34:28.788Z,37.60
2023-02-03T20:36:58.936Z,37.70
2023-02-03T20:39:28.227Z,37.70
2023-02-03T20:41:56.286Z,37.70
2023-02-03T20:44:24.428Z,37.70
2023-02-03T20:46:53.438Z,37.70
2023-02-03T20:49:21.968Z,37.70
2023-02-03T20:51:50.572Z,37.70
2023-02-03T20:54:21.949Z,37.80
2023-02-03T20:56:50.423Z,37.70
2023-02-03T20:59:20.424Z,37.80
2023-02-03T21:01:50.803Z,37.80
2023-02-03T21:04:38.474Z,37.80
2023-02-03T21:07:16.036Z,37.80
2023-02-03T21:09:44.006Z,37.70
2023-02-03T21:12:13.720Z,37.70
2023-02-03T21:14:44.045Z,37.80
2023-02-03T21:17:18.433Z,37.80
2023-02-03T21:19:47.411Z,37.80
2023-02-03T21:22:20.354Z,37.80
2023-02-03T21:25:00.406Z,37.80
2023-02-03T21:27:34.261Z,37.80
2023-02-03T21:30:22.324Z,37.80
2023-02-03T21:32:50.906Z,37.80
2023-02-03T21:35:29.695Z,37.80
2023-02-03T21:38:02.993Z,37.80
2023-02-03T21:40:34.033Z,37.80
2023-02-03T21:43:03.588Z,37.80
2023-02-03T21:45:39.444Z,37.80
2023-02-03T21:48:31.231Z,37.80
2023-02-03T21:51:16.049Z,37.90
2023-02-03T21:53:56.923Z,37.90
2023-02-03T21:56:38.712Z,37.80
2023-02-03T21:59:16.991Z,37.80
2023-02-03T22:01:44.747Z,37.80
2023-02-03T22:04:13.176Z,37.90
2023-02-03T22:06:41.300Z,37.80
2023-02-03T22:09:13.457Z,37.90
2023-02-03T22:11:41.834Z,37.80
2023-02-03T22:14:09.831Z,37.90
2023-02-03T22:16:37.711Z,37.90
2023-02-03T22:19:06.690Z,37.90
2023-02-03T22:21:35.584Z,37.90
2023-02-03T22:24:04.128Z,37.90
2023-02-03T22:26:32.350Z,37.90
2023-02-03T22:29:01.100Z,37.90
2023-02-03T22:31:29.800Z,37.90
2023-02-03T22:33:59.041Z,37.90
2023-02-03T22:36:27.316Z,37.90
2023-02-03T22:38:55.122Z,37.90
2023-02-03T22:41:22.970Z,37.90
2023-02-03T22:43:50.832Z,37.90
2023-02-03T22:46:18.915Z,37.90
2023-02-03T22:48:46.769Z,37.90
2023-02-03T22:51:14.640Z,37.90
2023-02-03T22:53:42.608Z,37.90
2023-02-03T22:56:10.619Z,37.90
2023-02-03T22:58:38.500Z,37.90
2023-02-03T23:01:06.450Z,37.90
2023-02-03T23:03:34.334Z,37.90
2023-02-03T23:06:02.064Z,37.90
2023-02-03T23:08:29.980Z,37.90
2023-02-03T23:10:58.834Z,37.90
2023-02-03T23:13:26.867Z,37.90
2023-02-03T23:15:54.797Z,37.90
2023-02-03T23:18:22.863Z,37.90
2023-02-03T23:20:50.801Z,37.90
2023-02-03T23:23:18.645Z,37.90
2023-02-03T23:25:46.601Z,37.90
2023-02-03T23:28:14.449Z,37.90
2023-02-03T23:30:42.285Z,37.90
2023-02-03T23:33:10.177Z,37.90
2023-02-03T23:35:46.924Z,37.90
2023-02-03T23:38:16.246Z,37.90
2023-02-03T23:40:44.425Z,38.00
2023-02-03T23:43:12.351Z,37.90
2023-02-03T23:45:40.494Z,37.90
2023-02-03T23:48:08.520Z,37.90
2023-02-03T23:50:37.078Z,37.90
2023-02-03T23:53:05.427Z,37.90
2023-02-03T23:55:33.376Z,37.90
2023-02-03T23:58:01.133Z,37.90
